^^
Station Historical Data
Daily Summary for May 30, 2017 Units:  English    Metric   Both
« Previous Day
Next Day »
Daily Weekly Monthly Yearly Custom
  High: Low: Average:
Temperature: 60.4 °F 54.1 °F 57.7 °F
Dew Point: 58.3 °F 51.9 °F 55.1 °F
Humidity: 95 % 85 % 91 %
Wind Speed: 1.3 mph 0.0 mph 0 mph
Wind Gust: 10.4 mph - -
Wind:- - SSE
Pressure: 30.15 in 30.06 in -
Precipitation: 0.01 in    
Historical Graphs
 
 
Tabular Data for May 30, 2017
Time Temperature Dew Point Pressure Wind Wind Speed Wind Gust Humidity Rainfall Rate (Hourly) solar Conditions
00:02 57.0 °F 54.7 °F 30.10 in Calm   1.2 mph 92 % 0.00 in 0.0 W/m2 RA
00:07 56.9 °F 54.6 °F 30.10 in Calm   1.2 mph 92 % 0.00 in 0.0 W/m2 RA
00:12 56.9 °F 54.6 °F 30.10 in Calm   1.2 mph 92 % 0.00 in 0.0 W/m2 OVC
00:17 56.9 °F 54.3 °F 30.10 in Calm   1.2 mph 91 % 0.00 in 0.0 W/m2 OVC
00:22 56.7 °F 54.1 °F 30.10 in East 0.2 mph 1.2 mph 91 % 0.00 in 0.0 W/m2 OVC
00:27 56.7 °F 54.4 °F 30.11 in Calm   1.2 mph 92 % 0.00 in 0.0 W/m2 OVC
00:32 56.6 °F 54.3 °F 30.10 in Calm   1.2 mph 92 % 0.00 in 0.0 W/m2 OVC
00:37 56.6 °F 54.3 °F 30.10 in Calm   1.2 mph 92 % 0.00 in 0.0 W/m2 OVC
00:43 56.5 °F 54.2 °F 30.10 in SSW 0.3 mph 1.2 mph 92 % 0.00 in 0.0 W/m2 OVC
00:48 56.5 °F 54.2 °F 30.10 in Calm   3.5 mph 92 % 0.00 in 0.0 W/m2 OVC
00:53 56.4 °F 54.1 °F 30.10 in Calm   3.5 mph 92 % 0.00 in 0.0 W/m2 OVC
00:58 56.4 °F 54.1 °F 30.10 in Calm   1.2 mph 92 % 0.00 in 0.0 W/m2 OVC
01:03 56.2 °F 53.6 °F 30.10 in Calm   1.2 mph 91 % 0.00 in 0.0 W/m2 OVC
01:08 56.2 °F 53.9 °F 30.10 in Calm   1.2 mph 92 % 0.00 in 0.0 W/m2 OVC
01:13 56.2 °F 53.9 °F 30.10 in Calm   1.2 mph 92 % 0.00 in 0.0 W/m2 OVC
01:18 56.0 °F 53.4 °F 30.10 in Calm   1.2 mph 91 % 0.00 in 0.0 W/m2 OVC
01:23 55.9 °F 53.3 °F 30.10 in Calm   3.5 mph 91 % 0.00 in 0.0 W/m2 OVC
01:28 55.9 °F 53.3 °F 30.10 in Calm   3.5 mph 91 % 0.00 in 0.0 W/m2 OVC
01:29 55.9 °F 53.3 °F 30.10 in Calm   3.5 mph 91 % 0.00 in 0.0 W/m2 OVC
01:34 55.9 °F 53.3 °F 30.10 in Calm   1.2 mph 91 % 0.00 in 0.0 W/m2 OVC
01:36 56.0 °F 53.4 °F 30.10 in Calm   1.2 mph 91 % 0.00 in 0.0 W/m2 OVC
01:41 56.0 °F 53.4 °F 30.10 in Calm     91 % 0.00 in 0.0 W/m2 OVC
01:46 56.1 °F 53.2 °F 30.10 in Calm     90 % 0.00 in 0.0 W/m2 OVC
01:51 56.2 °F 53.3 °F 30.10 in SSW 0.3 mph 3.5 mph 90 % 0.00 in 0.0 W/m2 OVC
01:56 56.1 °F 53.2 °F 30.10 in South 0.1 mph 3.5 mph 90 % 0.00 in 0.0 W/m2 OVC
02:01 56.2 °F 53.3 °F 30.11 in Calm   3.5 mph 90 % 0.00 in 0.0 W/m2 OVC
02:06 56.2 °F 53.0 °F 30.10 in Calm   1.2 mph 89 % 0.00 in 0.0 W/m2 OVC
02:11 56.1 °F 52.9 °F 30.10 in Calm     89 % 0.00 in 0.0 W/m2 OVC
02:12 56.1 °F 52.9 °F 30.10 in South 0.1 mph 1.2 mph 89 % 0.00 in 0.0 W/m2 OVC
02:17 56.2 °F 53.0 °F 30.10 in Calm   1.2 mph 89 % 0.00 in 0.0 W/m2 OVC
02:22 56.1 °F 52.9 °F 30.10 in Calm   3.5 mph 89 % 0.00 in 0.0 W/m2 OVC
02:27 56.0 °F 52.8 °F 30.10 in Calm   3.5 mph 89 % 0.00 in 0.0 W/m2 OVC
02:32 56.0 °F 52.8 °F 30.09 in Calm   2.3 mph 89 % 0.00 in 0.0 W/m2 OVC
02:37 55.9 °F 52.7 °F 30.10 in Calm   2.3 mph 89 % 0.00 in 0.0 W/m2 OVC
02:42 55.8 °F 52.6 °F 30.09 in Calm   1.2 mph 89 % 0.00 in 0.0 W/m2 OVC
02:47 55.8 °F 52.9 °F 30.10 in Calm   1.2 mph 90 % 0.00 in 0.0 W/m2 OVC
02:52 55.8 °F 52.9 °F 30.10 in Calm   2.3 mph 90 % 0.00 in 0.0 W/m2 OVC
02:57 55.7 °F 52.8 °F 30.10 in Calm   2.3 mph 90 % 0.00 in 0.0 W/m2 OVC
03:02 55.8 °F 52.9 °F 30.10 in Calm     90 % 0.00 in 0.0 W/m2 OVC
03:07 55.7 °F 52.8 °F 30.10 in Calm     90 % 0.00 in 0.0 W/m2 OVC
03:12 55.5 °F 52.6 °F 30.10 in Calm     90 % 0.00 in 0.0 W/m2 OVC
03:17 55.4 °F 52.5 °F 30.10 in Calm     90 % 0.00 in 0.0 W/m2 OVC
03:22 55.3 °F 52.4 °F 30.10 in Calm     90 % 0.00 in 0.0 W/m2 OVC
03:27 55.2 °F 52.3 °F 30.10 in Calm   1.2 mph 90 % 0.00 in 0.0 W/m2 OVC
03:32 55.2 °F 52.3 °F 30.11 in Calm   3.5 mph 90 % 0.00 in 0.0 W/m2 OVC
03:38 55.1 °F 52.2 °F 30.11 in Calm   3.5 mph 90 % 0.00 in 0.0 W/m2 OVC
03:43 55.1 °F 52.2 °F 30.11 in SE 0.1 mph 1.2 mph 90 % 0.00 in 0.0 W/m2 OVC
03:48 55.1 °F 52.2 °F 30.11 in Calm   1.2 mph 90 % 0.00 in 0.0 W/m2 OVC
03:53 55.1 °F 52.2 °F 30.11 in Calm   1.2 mph 90 % 0.00 in 0.0 W/m2 OVC
03:58 55.0 °F 52.1 °F 30.11 in ESE 0.3 mph 1.2 mph 90 % 0.00 in 0.0 W/m2 OVC
04:03 55.0 °F 52.1 °F 30.10 in Calm   3.5 mph 90 % 0.00 in 0.0 W/m2 OVC
04:08 55.1 °F 52.2 °F 30.11 in Calm   3.5 mph 90 % 0.00 in 0.0 W/m2 OVC
04:13 54.9 °F 52.0 °F 30.11 in Calm   2.3 mph 90 % 0.00 in 0.0 W/m2 OVC
04:18 54.9 °F 52.0 °F 30.11 in Calm   2.3 mph 90 % 0.00 in 0.0 W/m2 OVC
04:23 54.9 °F 52.0 °F 30.11 in Calm   1.2 mph 90 % 0.00 in 0.0 W/m2 OVC
04:28 54.8 °F 51.9 °F 30.10 in Calm   1.2 mph 90 % 0.00 in 0.0 W/m2 OVC
04:33 54.8 °F 52.2 °F 30.11 in Calm     91 % 0.00 in 0.0 W/m2 OVC
04:38 54.8 °F 52.2 °F 30.10 in Calm     91 % 0.00 in 0.0 W/m2 OVC
04:43 54.7 °F 52.1 °F 30.10 in Calm   1.2 mph 91 % 0.00 in 0.0 W/m2 OVC
04:48 54.7 °F 52.1 °F 30.11 in Calm   1.2 mph 91 % 0.00 in 0.0 W/m2 OVC
04:53 54.6 °F 52.0 °F 30.11 in Calm     91 % 0.00 in 0.0 W/m2 OVC
04:58 54.6 °F 52.0 °F 30.11 in Calm     91 % 0.00 in 0.0 W/m2 OVC
05:03 54.6 °F 52.0 °F 30.11 in Calm     91 % 0.00 in 0.0 W/m2 OVC
05:08 54.5 °F 51.9 °F 30.11 in Calm     91 % 0.00 in 0.0 W/m2 OVC
05:13 54.5 °F 52.2 °F 30.11 in Calm     92 % 0.00 in 0.0 W/m2 OVC
05:18 54.5 °F 52.2 °F 30.12 in Calm     92 % 0.00 in 0.0 W/m2 OVC
05:23 54.4 °F 52.1 °F 30.12 in Calm     92 % 0.00 in 0.0 W/m2 OVC
05:28 54.3 °F 52.0 °F 30.12 in Calm     92 % 0.00 in 0.0 W/m2 OVC
05:33 54.4 °F 52.1 °F 30.12 in Calm     92 % 0.00 in 0.0 W/m2 OVC
05:38 54.4 °F 52.1 °F 30.12 in Calm     92 % 0.00 in 0.0 W/m2 OVC
05:43 54.3 °F 52.0 °F 30.12 in Calm     92 % 0.00 in 0.0 W/m2 OVC
05:48 54.3 °F 52.3 °F 30.12 in Calm     93 % 0.00 in 0.0 W/m2 OVC
05:53 54.2 °F 52.2 °F 30.12 in Calm     93 % 0.00 in 0.0 W/m2 OVC
05:58 54.2 °F 52.2 °F 30.12 in Calm     93 % 0.00 in 0.0 W/m2 OVC
06:03 54.2 °F 52.2 °F 30.12 in Calm     93 % 0.00 in 5.0 W/m2 OVC
06:08 54.3 °F 52.3 °F 30.12 in Calm     93 % 0.01 in 5.0 W/m2 RA
06:13 54.2 °F 52.2 °F 30.12 in Calm     93 % 0.01 in 7.0 W/m2 RA
06:18 54.1 °F 52.1 °F 30.12 in Calm     93 % 0.01 in 9.0 W/m2 OVC
06:23 54.2 °F 52.2 °F 30.12 in Calm     93 % 0.01 in 9.0 W/m2 OVC
06:27 54.2 °F 52.5 °F 30.12 in Calm     94 % 0.01 in 9.0 W/m2 OVC
06:32 54.2 °F 52.2 °F 30.12 in Calm     93 % 0.01 in 11.0 W/m2 OVC
06:37 54.2 °F 52.2 °F 30.12 in Calm     93 % 0.01 in 19.0 W/m2 OVC
06:42 54.2 °F 52.2 °F 30.12 in Calm     93 % 0.01 in 25.0 W/m2 OVC
06:47 54.2 °F 52.5 °F 30.12 in Calm     94 % 0.01 in 19.0 W/m2 OVC
06:52 54.2 °F 52.5 °F 30.12 in Calm   1.2 mph 94 % 0.01 in 19.0 W/m2 OVC
06:57 54.4 °F 52.7 °F 30.13 in Calm   1.2 mph 94 % 0.01 in 25.0 W/m2 OVC
07:02 54.3 °F 52.6 °F 30.13 in Calm   1.2 mph 94 % 0.01 in 21.0 W/m2 OVC
07:07 54.4 °F 52.7 °F 30.13 in Calm   1.2 mph 94 % 0.00 in 46.0 W/m2 OVC
07:12 54.4 °F 52.7 °F 30.13 in Calm     94 % 0.00 in 37.0 W/m2 OVC
07:17 54.5 °F 52.5 °F 30.13 in Calm     93 % 0.00 in 33.0 W/m2 OVC
07:22 54.6 °F 52.6 °F 30.13 in Calm   1.2 mph 93 % 0.00 in 37.0 W/m2 OVC
07:27 54.4 °F 52.4 °F 30.13 in Calm   1.2 mph 93 % 0.00 in 39.0 W/m2 OVC
07:32 54.7 °F 52.7 °F 30.13 in Calm   1.2 mph 93 % 0.00 in 56.0 W/m2 OVC
07:37 54.9 °F 52.9 °F 30.13 in Calm     93 % 0.00 in 84.0 W/m2 OVC
07:42 55.0 °F 53.0 °F 30.13 in Calm   1.2 mph 93 % 0.00 in 47.0 W/m2 OVC
07:47 54.6 °F 52.6 °F 30.13 in Calm   1.2 mph 93 % 0.00 in 65.0 W/m2 OVC
07:52 54.9 °F 52.9 °F 30.14 in Calm   1.2 mph 93 % 0.00 in 74.0 W/m2 OVC
07:57 55.1 °F 53.1 °F 30.14 in Calm   1.2 mph 93 % 0.00 in 74.0 W/m2 OVC
08:02 55.2 °F 53.2 °F 30.14 in Calm     93 % 0.00 in 70.0 W/m2 OVC
08:04 55.2 °F 53.2 °F 30.13 in East 0.2 mph 1.2 mph 93 % 0.00 in 63.0 W/m2 OVC
08:08 55.1 °F 53.1 °F 30.14 in Calm   1.2 mph 93 % 0.00 in 63.0 W/m2 OVC
08:13 55.2 °F 53.2 °F 30.13 in Calm   1.2 mph 93 % 0.00 in 65.0 W/m2 OVC
08:18 55.4 °F 53.4 °F 30.14 in Calm   1.2 mph 93 % 0.00 in 62.0 W/m2 OVC
08:23 55.3 °F 53.3 °F 30.14 in East 0.5 mph 3.5 mph 93 % 0.00 in 81.0 W/m2 OVC
08:28 55.2 °F 53.2 °F 30.14 in Calm   3.5 mph 93 % 0.00 in 93.0 W/m2 OVC
08:33 55.3 °F 53.3 °F 30.14 in Calm   3.5 mph 93 % 0.00 in 97.0 W/m2 OVC
08:38 55.3 °F 53.3 °F 30.14 in Calm   1.2 mph 93 % 0.00 in 121.0 W/m2 OVC
08:43 55.6 °F 53.6 °F 30.14 in Calm   1.2 mph 93 % 0.00 in 86.0 W/m2 OVC
08:48 55.5 °F 53.5 °F 30.14 in SSE 0.1 mph 1.2 mph 93 % 0.00 in 84.0 W/m2 OVC
08:53 55.4 °F 53.1 °F 30.15 in Calm   1.2 mph 92 % 0.00 in 51.0 W/m2 OVC
08:58 55.6 °F 53.6 °F 30.15 in Calm   1.2 mph 93 % 0.00 in 51.0 W/m2 OVC
09:03 55.5 °F 53.2 °F 30.15 in Calm     92 % 0.00 in 56.0 W/m2 OVC
09:06 55.6 °F 53.3 °F 30.15 in Calm   1.2 mph 92 % 0.00 in 63.0 W/m2 OVC
09:11 55.7 °F 53.4 °F 30.15 in Calm   1.2 mph 92 % 0.00 in 63.0 W/m2 OVC
09:16 55.8 °F 53.5 °F 30.15 in Calm     92 % 0.00 in 86.0 W/m2 OVC
09:21 55.8 °F 53.5 °F 30.15 in Calm     92 % 0.00 in 90.0 W/m2 OVC
09:26 55.8 °F 53.5 °F 30.15 in Calm   1.2 mph 92 % 0.00 in 81.0 W/m2 OVC
09:31 55.9 °F 53.6 °F 30.15 in East 0.1 mph 1.2 mph 92 % 0.00 in 95.0 W/m2 OVC
09:36 56.1 °F 53.8 °F 30.15 in Calm   2.3 mph 92 % 0.00 in 111.0 W/m2 OVC
09:41 56.3 °F 54.0 °F 30.15 in Calm   2.3 mph 92 % 0.00 in 134.0 W/m2 OVC
09:46 56.1 °F 53.5 °F 30.14 in SE 0.1 mph 1.2 mph 91 % 0.00 in 176.0 W/m2 OVC
09:51 56.3 °F 54.0 °F 30.14 in Calm   1.2 mph 92 % 0.00 in 155.0 W/m2 OVC
09:56 56.6 °F 54.0 °F 30.14 in SE 0.1 mph 1.2 mph 91 % 0.00 in 134.0 W/m2 OVC
10:01 56.7 °F 54.1 °F 30.14 in Calm   1.2 mph 91 % 0.00 in 167.0 W/m2 OVC
10:02 56.7 °F 54.1 °F 30.14 in SSE 0.1 mph 1.2 mph 91 % 0.00 in 158.0 W/m2 OVC
10:07 57.0 °F 54.4 °F 30.14 in Calm   1.2 mph 91 % 0.00 in 185.0 W/m2 OVC
10:12 57.1 °F 54.5 °F 30.14 in Calm   1.2 mph 91 % 0.00 in 202.0 W/m2 OVC
10:17 57.1 °F 54.5 °F 30.14 in Calm   3.5 mph 91 % 0.00 in 146.0 W/m2 OVC
10:22 57.2 °F 54.3 °F 30.14 in Calm   3.5 mph 90 % 0.00 in 155.0 W/m2 OVC
10:27 57.4 °F 54.5 °F 30.13 in Calm   1.2 mph 90 % 0.00 in 123.0 W/m2 OVC
10:32 57.4 °F 54.5 °F 30.13 in Calm   1.2 mph 90 % 0.00 in 130.0 W/m2 OVC
10:37 57.4 °F 54.5 °F 30.13 in Calm   3.5 mph 90 % 0.00 in 111.0 W/m2 OVC
10:42 57.6 °F 54.4 °F 30.13 in Calm   3.5 mph 89 % 0.00 in 139.0 W/m2 OVC
10:47 57.6 °F 54.4 °F 30.13 in Calm   1.2 mph 89 % 0.00 in 125.0 W/m2 OVC
10:52 57.5 °F 54.3 °F 30.13 in Calm   1.2 mph 89 % 0.00 in 90.0 W/m2 OVC
10:57 57.5 °F 54.3 °F 30.14 in Calm   1.2 mph 89 % 0.00 in 74.0 W/m2 OVC
11:02 57.6 °F 54.4 °F 30.14 in Calm   1.2 mph 89 % 0.00 in 107.0 W/m2 OVC
11:07 57.8 °F 54.6 °F 30.13 in Calm   1.2 mph 89 % 0.00 in 127.0 W/m2 OVC
11:12 57.9 °F 54.7 °F 30.14 in Calm   2.3 mph 89 % 0.00 in 77.0 W/m2 OVC
11:17 58.0 °F 54.8 °F 30.14 in South 0.6 mph 2.3 mph 89 % 0.00 in 121.0 W/m2 OVC
11:22 58.1 °F 54.9 °F 30.14 in Calm   3.5 mph 89 % 0.00 in 113.0 W/m2 OVC
11:27 58.1 °F 54.6 °F 30.14 in Calm   3.5 mph 88 % 0.00 in 130.0 W/m2 OVC
11:32 58.1 °F 54.9 °F 30.14 in Calm   1.2 mph 89 % 0.00 in 139.0 W/m2 OVC
11:37 58.3 °F 55.1 °F 30.14 in South 0.2 mph 1.2 mph 89 % 0.00 in 174.0 W/m2 OVC
11:38 58.3 °F 55.1 °F 30.13 in Calm   2.3 mph 89 % 0.00 in 179.0 W/m2 OVC
11:43 58.5 °F 55.0 °F 30.14 in SSE 0.2 mph 2.3 mph 88 % 0.00 in 237.0 W/m2 OVC
11:48 58.8 °F 55.3 °F 30.13 in SE 0.1 mph 2.3 mph 88 % 0.00 in 209.0 W/m2 OVC
11:53 58.7 °F 54.8 °F 30.14 in Calm   2.3 mph 87 % 0.00 in 160.0 W/m2 OVC
11:58 58.6 °F 55.1 °F 30.14 in Calm   2.3 mph 88 % 0.00 in 156.0 W/m2 OVC
12:03 58.7 °F 55.2 °F 30.13 in Calm   1.2 mph 88 % 0.00 in 200.0 W/m2 OVC
12:08 58.9 °F 55.4 °F 30.13 in Calm   1.2 mph 88 % 0.00 in 295.0 W/m2 OVC
12:13 59.2 °F 55.3 °F 30.13 in ESE 0.4 mph 1.2 mph 87 % 0.00 in 167.0 W/m2 OVC
12:18 59.2 °F 55.3 °F 30.12 in Calm   3.5 mph 87 % 0.00 in 174.0 W/m2 OVC
12:23 59.1 °F 55.2 °F 30.13 in Calm   3.5 mph 87 % 0.00 in 123.0 W/m2 OVC
12:28 59.2 °F 55.3 °F 30.12 in Calm   3.5 mph 87 % 0.00 in 144.0 W/m2 OVC
12:33 59.6 °F 55.7 °F 30.12 in Calm   3.5 mph 87 % 0.00 in 123.0 W/m2 OVC
12:38 59.9 °F 56.0 °F 30.12 in SSW 1.2 mph 1.2 mph 87 % 0.00 in 127.0 W/m2 OVC
12:43 59.8 °F 55.6 °F 30.12 in SSE 1.3 mph 3.5 mph 86 % 0.00 in 114.0 W/m2 OVC
12:49 59.7 °F 55.5 °F 30.13 in Calm   6.9 mph 86 % 0.00 in 162.0 W/m2 OVC
12:54 59.7 °F 55.5 °F 30.12 in Calm   6.9 mph 86 % 0.00 in 181.0 W/m2 OVC
12:59 59.8 °F 55.6 °F 30.12 in Calm   1.2 mph 86 % 0.00 in 169.0 W/m2 OVC
13:04 59.9 °F 56.0 °F 30.12 in SSE 0.1 mph 1.2 mph 87 % 0.00 in 179.0 W/m2 OVC
13:09 60.1 °F 55.9 °F 30.11 in Calm   3.5 mph 86 % 0.00 in 151.0 W/m2 OVC
13:14 60.0 °F 55.8 °F 30.11 in South 1.3 mph 4.6 mph 86 % 0.00 in 123.0 W/m2 OVC
13:19 59.8 °F 55.6 °F 30.11 in ESE 0.6 mph 4.6 mph 86 % 0.00 in 113.0 W/m2 OVC
13:24 59.9 °F 56.0 °F 30.10 in Calm   6.9 mph 87 % 0.00 in 156.0 W/m2 OVC
13:29 60.1 °F 55.9 °F 30.10 in Calm   6.9 mph 86 % 0.00 in 141.0 W/m2 OVC
13:34 60.1 °F 56.2 °F 30.10 in ESE 0.4 mph 3.5 mph 87 % 0.00 in 135.0 W/m2 OVC
13:35 60.0 °F 55.8 °F 30.10 in SE 0.4 mph 3.5 mph 86 % 0.00 in 142.0 W/m2 OVC
13:40 59.9 °F 55.7 °F 30.10 in SSW 0.3 mph 3.5 mph 86 % 0.00 in 127.0 W/m2 OVC
13:50 60.2 °F 56.0 °F 30.10 in Calm   4.6 mph 86 % 0.00 in 135.0 W/m2 OVC
13:55 60.2 °F 56.0 °F 30.10 in Calm   4.6 mph 86 % 0.00 in 105.0 W/m2 OVC
14:01 60.3 °F 55.8 °F 30.10 in Calm   10.4 mph 85 % 0.00 in 90.0 W/m2 OVC
14:06 60.4 °F 55.9 °F 30.09 in SSE 0.2 mph 10.4 mph 85 % 0.00 in 93.0 W/m2 OVC
14:11 60.3 °F 55.8 °F 30.09 in South 0.2 mph 3.5 mph 85 % 0.00 in 90.0 W/m2 OVC
14:16 60.3 °F 56.1 °F 30.09 in Calm   5.8 mph 86 % 0.00 in 114.0 W/m2 OVC
14:21 60.3 °F 56.1 °F 30.09 in South 0.3 mph 5.8 mph 86 % 0.00 in 111.0 W/m2 OVC
14:26 60.2 °F 56.0 °F 30.09 in Calm   2.3 mph 86 % 0.00 in 98.0 W/m2 OVC
14:31 60.0 °F 55.8 °F 30.09 in SSE 0.1 mph 2.3 mph 86 % 0.00 in 88.0 W/m2 OVC
14:36 60.1 °F 55.9 °F 30.09 in Calm   2.3 mph 86 % 0.00 in 72.0 W/m2 OVC
14:41 60.0 °F 56.1 °F 30.09 in Calm   2.3 mph 87 % 0.00 in 70.0 W/m2 OVC
14:46 60.0 °F 56.1 °F 30.09 in SE 0.2 mph 2.3 mph 87 % 0.00 in 77.0 W/m2 OVC
14:51 60.0 °F 56.1 °F 30.09 in ESE 1.3 mph 4.6 mph 87 % 0.00 in 79.0 W/m2 OVC
14:56 60.0 °F 56.1 °F 30.09 in Calm   4.6 mph 87 % 0.00 in 77.0 W/m2 OVC
15:01 60.1 °F 56.2 °F 30.09 in Calm   4.6 mph 87 % 0.00 in 83.0 W/m2 OVC
15:06 60.1 °F 56.2 °F 30.09 in Calm   3.5 mph 87 % 0.00 in 84.0 W/m2 OVC
15:11 60.2 °F 56.3 °F 30.09 in Calm   3.5 mph 87 % 0.00 in 97.0 W/m2 OVC
15:16 60.1 °F 56.2 °F 30.09 in Calm   3.5 mph 87 % 0.00 in 98.0 W/m2 OVC
15:21 60.1 °F 56.5 °F 30.08 in Calm     88 % 0.00 in 105.0 W/m2 OVC
15:26 60.1 °F 56.5 °F 30.08 in SE 0.4 mph 1.2 mph 88 % 0.00 in 109.0 W/m2 OVC
15:31 60.0 °F 56.7 °F 30.08 in Calm   3.5 mph 89 % 0.00 in 111.0 W/m2 OVC
15:36 60.1 °F 56.8 °F 30.08 in Calm   3.5 mph 89 % 0.00 in 88.0 W/m2 OVC
15:41 59.9 °F 56.6 °F 30.08 in Calm   2.3 mph 89 % 0.00 in 76.0 W/m2 OVC
15:46 59.9 °F 57.0 °F 30.08 in Calm   1.2 mph 90 % 0.00 in 67.0 W/m2 OVC
15:51 59.7 °F 56.8 °F 30.08 in Calm   1.2 mph 90 % 0.00 in 65.0 W/m2 OVC
15:56 59.6 °F 56.7 °F 30.08 in Calm   1.2 mph 90 % 0.00 in 62.0 W/m2 OVC
16:01 59.6 °F 56.7 °F 30.08 in Calm   1.2 mph 90 % 0.00 in 54.0 W/m2 OVC
16:06 59.5 °F 56.6 °F 30.08 in Calm   3.5 mph 90 % 0.00 in 56.0 W/m2 OVC
16:11 59.6 °F 57.0 °F 30.08 in Calm   3.5 mph 91 % 0.00 in 62.0 W/m2 OVC
16:16 59.6 °F 57.0 °F 30.08 in Calm   1.2 mph 91 % 0.00 in 77.0 W/m2 OVC
16:21 59.7 °F 57.1 °F 30.08 in Calm   1.2 mph 91 % 0.00 in 72.0 W/m2 OVC
16:26 59.6 °F 57.0 °F 30.08 in Calm   1.2 mph 91 % 0.00 in 83.0 W/m2 OVC
16:31 59.6 °F 57.0 °F 30.08 in Calm   1.2 mph 91 % 0.00 in 65.0 W/m2 OVC
16:36 59.6 °F 57.0 °F 30.08 in Calm   1.2 mph 91 % 0.00 in 56.0 W/m2 OVC
16:41 59.6 °F 57.3 °F 30.09 in Calm   1.2 mph 92 % 0.00 in 54.0 W/m2 OVC
16:46 59.5 °F 57.2 °F 30.09 in Calm   1.2 mph 92 % 0.00 in 42.0 W/m2 OVC
16:52 59.4 °F 57.1 °F 30.09 in Calm   1.2 mph 92 % 0.00 in 53.0 W/m2 OVC
16:57 59.3 °F 57.0 °F 30.09 in South 0.1 mph 1.2 mph 92 % 0.00 in 51.0 W/m2 OVC
17:02 59.4 °F 57.4 °F 30.09 in Calm   1.2 mph 93 % 0.00 in 44.0 W/m2 OVC
17:07 59.4 °F 57.4 °F 30.09 in Calm   1.2 mph 93 % 0.00 in 35.0 W/m2 OVC
17:09 59.4 °F 57.4 °F 30.08 in Calm   1.2 mph 93 % 0.00 in 33.0 W/m2 OVC
17:14 59.3 °F 57.3 °F 30.08 in Calm     93 % 0.00 in 51.0 W/m2 OVC
17:19 59.2 °F 57.2 °F 30.08 in Calm   1.2 mph 93 % 0.00 in 47.0 W/m2 OVC
17:24 59.3 °F 57.3 °F 30.08 in Calm   1.2 mph 93 % 0.00 in 35.0 W/m2 OVC
17:29 59.3 °F 57.3 °F 30.08 in Calm     93 % 0.00 in 44.0 W/m2 OVC
17:34 59.3 °F 57.3 °F 30.08 in Calm   1.2 mph 93 % 0.00 in 35.0 W/m2 OVC
17:39 59.3 °F 57.3 °F 30.08 in Calm   1.2 mph 93 % 0.00 in 30.0 W/m2 OVC
17:44 59.3 °F 57.3 °F 30.08 in Calm   1.2 mph 93 % 0.00 in 26.0 W/m2 OVC
17:49 59.2 °F 57.2 °F 30.08 in SSE 0.4 mph 1.2 mph 93 % 0.00 in 33.0 W/m2 OVC
17:54 59.2 °F 57.2 °F 30.08 in Calm   3.5 mph 93 % 0.00 in 49.0 W/m2 OVC
18:00 59.2 °F 57.2 °F 30.08 in Calm   3.5 mph 93 % 0.00 in 35.0 W/m2 OVC
18:05 59.4 °F 57.7 °F 30.08 in Calm   3.0 mph 94 % 0.00 in 25.0 W/m2 OVC
18:10 59.4 °F 57.4 °F 30.08 in Calm   3.0 mph 93 % 0.00 in 23.0 W/m2 OVC
18:15 59.3 °F 57.3 °F 30.08 in Calm   3.5 mph 93 % 0.00 in 14.0 W/m2 OVC
18:20 59.4 °F 57.4 °F 30.08 in Calm   1.2 mph 93 % 0.00 in 69.0 W/m2 OVC
18:25 59.6 °F 57.6 °F 30.07 in Calm     93 % 0.00 in 67.0 W/m2 OVC
18:30 59.4 °F 57.4 °F 30.07 in South 0.1 mph 3.5 mph 93 % 0.00 in 19.0 W/m2 OVC
18:35 59.4 °F 57.4 °F 30.07 in Calm   3.5 mph 93 % 0.00 in 21.0 W/m2 OVC
18:40 59.4 °F 57.4 °F 30.07 in Calm   2.3 mph 93 % 0.00 in 30.0 W/m2 OVC
18:45 59.5 °F 57.5 °F 30.07 in Calm     93 % 0.00 in 32.0 W/m2 OVC
18:50 59.5 °F 57.5 °F 30.06 in SE 0.1 mph 2.3 mph 93 % 0.00 in 40.0 W/m2 OVC
18:55 59.5 °F 57.5 °F 30.07 in ESE 0.2 mph 2.3 mph 93 % 0.00 in 11.0 W/m2 OVC
19:00 59.5 °F 57.5 °F 30.07 in South 0.1 mph 2.3 mph 93 % 0.00 in 11.0 W/m2 OVC
19:05 59.4 °F 57.4 °F 30.07 in South 0.1 mph 3.5 mph 93 % 0.00 in 21.0 W/m2 OVC
19:10 59.5 °F 57.5 °F 30.08 in Calm   3.5 mph 93 % 0.00 in 23.0 W/m2 OVC
19:15 59.5 °F 57.5 °F 30.08 in South 0.7 mph 3.5 mph 93 % 0.00 in 14.0 W/m2 OVC
19:20 59.5 °F 57.5 °F 30.08 in Calm   3.5 mph 93 % 0.00 in 14.0 W/m2 OVC
19:25 59.5 °F 57.5 °F 30.08 in Calm   3.5 mph 93 % 0.00 in 14.0 W/m2 OVC
19:30 59.6 °F 57.6 °F 30.08 in Calm   3.5 mph 93 % 0.00 in 18.0 W/m2 OVC
19:35 59.6 °F 57.6 °F 30.08 in Calm     93 % 0.00 in 12.0 W/m2 OVC
19:40 59.6 °F 57.6 °F 30.09 in Calm     93 % 0.00 in 11.0 W/m2 OVC
19:45 59.6 °F 57.6 °F 30.09 in Calm   1.2 mph 93 % 0.00 in 9.0 W/m2 OVC
19:50 59.6 °F 57.6 °F 30.09 in South 0.1 mph 2.3 mph 93 % 0.00 in 11.0 W/m2 OVC
19:55 59.5 °F 57.5 °F 30.09 in Calm   2.3 mph 93 % 0.00 in 11.0 W/m2 OVC
20:00 59.5 °F 57.5 °F 30.08 in Calm   2.3 mph 93 % 0.00 in 12.0 W/m2 OVC
20:05 59.6 °F 57.6 °F 30.08 in Calm     93 % 0.00 in 11.0 W/m2 OVC
20:10 59.6 °F 57.9 °F 30.08 in Calm     94 % 0.00 in 5.0 W/m2 OVC
20:12 59.6 °F 57.9 °F 30.08 in Calm     94 % 0.00 in 0.0 W/m2 OVC
20:17 59.6 °F 57.9 °F 30.08 in Calm     94 % 0.00 in 0.0 W/m2 OVC
20:22 59.6 °F 57.9 °F 30.08 in Calm     94 % 0.00 in 0.0 W/m2 OVC
20:27 59.6 °F 57.9 °F 30.09 in Calm     94 % 0.00 in 0.0 W/m2 OVC
20:32 59.6 °F 57.9 °F 30.09 in Calm     94 % 0.00 in 0.0 W/m2 OVC
20:37 59.5 °F 57.8 °F 30.09 in Calm     94 % 0.00 in 0.0 W/m2 OVC
20:42 59.5 °F 57.8 °F 30.09 in Calm     94 % 0.00 in 0.0 W/m2 OVC
20:47 59.6 °F 57.9 °F 30.09 in Calm     94 % 0.00 in 0.0 W/m2 OVC
20:52 59.5 °F 57.8 °F 30.10 in Calm     94 % 0.00 in 0.0 W/m2 OVC
20:57 59.6 °F 57.9 °F 30.10 in Calm     94 % 0.00 in 0.0 W/m2 OVC
21:02 59.6 °F 57.9 °F 30.10 in Calm     94 % 0.00 in 0.0 W/m2 OVC
21:07 59.7 °F 58.0 °F 30.10 in Calm     94 % 0.00 in 0.0 W/m2 OVC
21:12 59.7 °F 58.0 °F 30.10 in Calm     94 % 0.00 in 0.0 W/m2 OVC
21:17 59.7 °F 58.0 °F 30.10 in Calm   1.2 mph 94 % 0.00 in 0.0 W/m2 OVC
21:22 59.7 °F 58.0 °F 30.10 in Calm   1.2 mph 94 % 0.00 in 0.0 W/m2 OVC
21:27 59.7 °F 58.0 °F 30.10 in Calm     94 % 0.00 in 0.0 W/m2 OVC
21:32 59.6 °F 57.9 °F 30.10 in Calm     94 % 0.00 in 0.0 W/m2 OVC
21:37 59.6 °F 57.9 °F 30.10 in Calm     94 % 0.00 in 0.0 W/m2 OVC
21:42 59.6 °F 57.9 °F 30.10 in Calm     94 % 0.00 in 0.0 W/m2 OVC
21:47 59.7 °F 58.0 °F 30.10 in Calm     94 % 0.00 in 0.0 W/m2 OVC
21:52 59.6 °F 58.2 °F 30.10 in Calm     95 % 0.00 in 0.0 W/m2 OVC
21:57 59.6 °F 57.9 °F 30.09 in Calm     94 % 0.00 in 0.0 W/m2 OVC
22:02 59.5 °F 57.8 °F 30.09 in Calm     94 % 0.00 in 0.0 W/m2 OVC
22:07 59.5 °F 57.8 °F 30.09 in Calm     94 % 0.00 in 0.0 W/m2 OVC
22:12 59.7 °F 58.3 °F 30.10 in Calm     95 % 0.00 in 0.0 W/m2 OVC
22:17 59.5 °F 57.8 °F 30.10 in Calm   1.2 mph 94 % 0.00 in 0.0 W/m2 OVC
22:22 59.5 °F 58.1 °F 30.10 in Calm   1.2 mph 95 % 0.00 in 0.0 W/m2 OVC
22:27 59.4 °F 58.0 °F 30.09 in Calm   1.2 mph 95 % 0.00 in 0.0 W/m2 OVC
22:32 59.4 °F 58.0 °F 30.09 in Calm     95 % 0.00 in 0.0 W/m2 OVC
22:37 59.4 °F 58.0 °F 30.09 in Calm     95 % 0.00 in 0.0 W/m2 OVC
22:42 59.4 °F 58.0 °F 30.09 in Calm     95 % 0.00 in 0.0 W/m2 OVC
22:43 59.4 °F 58.0 °F 30.09 in Calm     95 % 0.00 in 0.0 W/m2 OVC
22:48 59.4 °F 58.0 °F 30.09 in Calm     95 % 0.00 in 0.0 W/m2 OVC
22:53 59.4 °F 58.0 °F 30.09 in Calm   1.2 mph 95 % 0.00 in 0.0 W/m2 OVC
22:58 59.3 °F 57.9 °F 30.09 in Calm   1.2 mph 95 % 0.00 in 0.0 W/m2 OVC
23:03 59.3 °F 57.9 °F 30.08 in Calm     95 % 0.00 in 0.0 W/m2 OVC
23:13 59.3 °F 57.9 °F 30.08 in Calm   1.2 mph 95 % 0.00 in 0.0 W/m2 OVC
23:18 59.3 °F 57.9 °F 30.08 in Calm   1.2 mph 95 % 0.00 in 0.0 W/m2 OVC
23:23 59.4 °F 58.0 °F 30.08 in Calm     95 % 0.00 in 0.0 W/m2 OVC
23:28 59.3 °F 57.9 °F 30.08 in Calm     95 % 0.00 in 0.0 W/m2 OVC
23:33 59.3 °F 57.9 °F 30.08 in Calm     95 % 0.00 in 0.0 W/m2 OVC
23:38 59.2 °F 57.8 °F 30.09 in Calm     95 % 0.00 in 0.0 W/m2 OVC
23:43 59.2 °F 57.8 °F 30.08 in Calm     95 % 0.00 in 0.0 W/m2 OVC
23:48 59.2 °F 57.8 °F 30.08 in Calm     95 % 0.00 in 0.0 W/m2 OVC
23:53 59.1 °F 57.7 °F 30.08 in Calm     95 % 0.00 in 0.0 W/m2 OVC
23:58 59.1 °F 57.7 °F 30.08 in Calm     95 % 0.00 in 0.0 W/m2 OVC
Air Products Campus Weather
Compliments of Weather Underground - 3.5 mb